Time;durP1;ratioP1;P1;durP2;ratioP2;P2;SDS_P1;SDS_P2;PMS_P1;PMS_P2;Temp;Humidity;BMP_temperature;BMP_pressure;BME280_temperature;BME280_humidity;BME280_pressure;Samples;Min_cycle;Max_cycle;Signal;HPM_P1;HPM_P2
2023/05/22 00:01:36;;;;;;;6.15;4.55;;;18.60;99.90;;;;;;4173301;28;20041;-61
2023/05/22 00:03:37;;;;;;;6.40;4.53;;;18.70;99.90;;;;;;4175011;28;20090;-61
2023/05/22 00:05:38;;;;;;;6.05;4.65;;;18.70;99.90;;;;;;4175508;28;20299;-61
2023/05/22 00:07:39;;;;;;;5.72;4.60;;;18.80;99.90;;;;;;4175218;28;20040;-62
2023/05/22 00:09:40;;;;;;;4.88;3.97;;;18.80;99.90;;;;;;4175589;28;20055;-61
2023/05/22 00:11:41;;;;;;;5.82;4.55;;;18.90;99.90;;;;;;4173351;28;20056;-61
2023/05/22 00:13:41;;;;;;;5.78;4.50;;;18.90;99.90;;;;;;4176979;28;20574;-61
2023/05/22 00:15:42;;;;;;;5.57;4.78;;;19.00;99.90;;;;;;4174496;28;20029;-61
2023/05/22 00:17:43;;;;;;;5.60;4.57;;;18.90;99.90;;;;;;4176507;28;20033;-62
2023/05/22 00:19:43;;;;;;;5.82;4.75;;;19.00;99.90;;;;;;4175753;28;20411;-61
2023/05/22 00:21:45;;;;;;;6.50;4.85;;;19.00;99.90;;;;;;4174213;28;20037;-61
2023/05/22 00:23:46;;;;;;;6.35;5.30;;;19.00;99.90;;;;;;4176686;28;20111;-61
2023/05/22 00:25:46;;;;;;;5.90;5.00;;;19.00;99.90;;;;;;4175088;28;20810;-61
2023/05/22 00:27:47;;;;;;;6.25;4.50;;;18.90;99.90;;;;;;4174882;28;20369;-61
2023/05/22 00:29:48;;;;;;;6.55;5.00;;;19.00;99.90;;;;;;4176675;28;20056;-61
2023/05/22 00:31:49;;;;;;;6.70;4.88;;;19.00;99.90;;;;;;4173076;28;20037;-61
2023/05/22 00:33:50;;;;;;;5.70;4.50;;;19.00;99.90;;;;;;4173875;28;20430;-61
2023/05/22 00:35:50;;;;;;;6.65;5.05;;;19.00;99.90;;;;;;4173501;28;20032;-61
2023/05/22 00:37:51;;;;;;;5.13;4.03;;;19.00;99.90;;;;;;4176306;28;20116;-61
2023/05/22 00:39:51;;;;;;;7.13;4.53;;;19.00;99.90;;;;;;4175575;28;20029;-61
2023/05/22 00:41:52;;;;;;;5.03;4.30;;;19.10;99.90;;;;;;4172355;28;20037;-61
2023/05/22 00:43:53;;;;;;;6.05;4.63;;;19.10;99.90;;;;;;4175321;28;20029;-61
2023/05/22 00:45:54;;;;;;;9.38;5.38;;;19.10;99.90;;;;;;4171970;28;20029;-62
2023/05/22 00:47:55;;;;;;;7.30;5.75;;;19.10;99.90;;;;;;4174847;28;20035;-62
2023/05/22 00:49:56;;;;;;;8.00;5.82;;;19.00;99.90;;;;;;4174579;28;20455;-61
2023/05/22 00:51:56;;;;;;;7.18;5.35;;;18.90;99.90;;;;;;4170312;28;20785;-65
2023/05/22 00:53:57;;;;;;;7.40;5.57;;;18.90;99.90;;;;;;4175419;28;20025;-63
2023/05/22 00:55:58;;;;;;;7.68;6.28;;;18.80;99.90;;;;;;4173946;28;20060;-62
2023/05/22 00:58:01;;;;;;;9.10;5.55;;;18.70;99.90;;;;;;4171509;28;20033;-61
2023/05/22 01:00:05;;;;;;;6.72;5.07;;;18.70;99.90;;;;;;4174427;28;20041;-63
2023/05/22 01:02:05;;;;;;;5.85;5.20;;;18.70;99.90;;;;;;4174208;28;20036;-61
2023/05/22 01:04:10;;;;;;;6.35;4.90;;;18.70;99.90;;;;;;4175745;28;20098;-61
2023/05/22 01:06:17;;;;;;;5.97;4.97;;;18.70;99.90;;;;;;4175091;28;20387;-61
2023/05/22 01:08:18;;;;;;;6.78;5.00;;;18.70;99.90;;;;;;4173883;28;20163;-61
2023/05/22 01:10:19;;;;;;;8.70;6.35;;;18.70;99.90;;;;;;4174874;28;20044;-61
2023/05/22 01:12:31;;;;;;;7.18;5.82;;;18.80;99.90;;;;;;4173975;28;20037;-61
2023/05/22 01:15:07;;;;;;;6.13;5.18;;;18.80;99.90;;;;;;4173478;28;20071;-61
2023/05/22 01:17:22;;;;;;;7.18;6.10;;;18.90;99.90;;;;;;4163646;28;20072;-62
2023/05/22 01:20:20;;;;;;;8.18;5.72;;;18.90;99.90;;;;;;4175670;28;20065;-61
2023/05/22 01:22:57;;;;;;;7.15;6.13;;;18.90;99.90;;;;;;4175547;28;20060;-61
2023/05/22 01:25:10;;;;;;;8.38;6.35;;;18.90;99.90;;;;;;4174041;28;20021;-62
2023/05/22 01:27:42;;;;;;;9.07;6.85;;;18.90;99.90;;;;;;4172116;28;20037;-62
2023/05/22 01:30:04;;;;;;;7.00;5.90;;;19.00;99.90;;;;;;4172683;28;20397;-62
2023/05/22 01:32:06;;;;;;;7.63;6.30;;;19.00;99.90;;;;;;4171748;28;20136;-62
2023/05/22 01:34:11;;;;;;;6.70;5.72;;;19.00;99.90;;;;;;4175126;28;20260;-62
2023/05/22 01:36:19;;;;;;;8.40;7.30;;;19.00;99.90;;;;;;4175064;28;20082;-61
2023/05/22 01:38:20;;;;;;;8.68;7.10;;;19.00;99.90;;;;;;4173572;28;20037;-62
2023/05/22 01:40:21;;;;;;;9.52;6.90;;;19.00;99.90;;;;;;4173702;28;20115;-61
2023/05/22 01:42:22;;;;;;;10.43;8.38;;;19.00;99.90;;;;;;4173833;28;20045;-62
2023/05/22 01:44:24;;;;;;;10.98;8.55;;;19.00;99.90;;;;;;4174808;28;20445;-62
2023/05/22 01:46:26;;;;;;;10.90;8.38;;;18.90;99.90;;;;;;4173435;28;20086;-63
2023/05/22 01:48:27;;;;;;;8.93;7.25;;;18.90;99.90;;;;;;4173822;28;20057;-62
2023/05/22 01:50:27;;;;;;;9.30;7.55;;;18.90;99.90;;;;;;4173235;28;20094;-62
2023/05/22 01:52:39;;;;;;;11.07;8.60;;;19.00;99.90;;;;;;4174518;28;20029;-62
2023/05/22 01:55:02;;;;;;;10.25;6.78;;;18.90;99.90;;;;;;4173222;28;20036;-62
2023/05/22 01:57:16;;;;;;;8.80;7.13;;;18.90;99.90;;;;;;4172039;28;20029;-62
2023/05/22 01:59:32;;;;;;;8.65;6.88;;;18.90;99.90;;;;;;4174786;28;20044;-62
2023/05/22 02:01:36;;;;;;;10.20;6.88;;;18.90;99.90;;;;;;4173104;28;20033;-62
2023/05/22 02:03:39;;;;;;;6.88;6.13;;;19.00;99.90;;;;;;4174567;28;20036;-62
2023/05/22 02:05:40;;;;;;;8.15;6.88;;;19.10;99.90;;;;;;4175840;28;20032;-62
2023/05/22 02:07:42;;;;;;;9.10;7.00;;;19.10;99.90;;;;;;4179616;28;20037;-62
2023/05/22 02:09:44;;;;;;;8.02;7.03;;;19.10;99.90;;;;;;4180989;28;20072;-62
2023/05/22 02:11:46;;;;;;;7.93;6.75;;;19.10;99.90;;;;;;4178938;28;20115;-62
2023/05/22 02:13:48;;;;;;;8.60;7.27;;;19.10;99.90;;;;;;4180561;28;20499;-62
2023/05/22 02:15:49;;;;;;;8.15;6.72;;;19.10;99.90;;;;;;4175960;28;20383;-62
2023/05/22 02:17:51;;;;;;;10.07;6.95;;;19.10;99.90;;;;;;4178570;28;20032;-62
2023/05/22 02:19:52;;;;;;;8.23;7.00;;;19.10;99.90;;;;;;4179113;28;24578;-62
2023/05/22 02:21:53;;;;;;;7.00;6.15;;;19.20;99.90;;;;;;4179735;28;20098;-62
2023/05/22 02:23:53;;;;;;;8.70;6.75;;;19.20;99.90;;;;;;4179757;28;20068;-62
2023/05/22 02:25:54;;;;;;;8.35;6.88;;;19.10;99.90;;;;;;4178085;28;20037;-62
2023/05/22 02:27:55;;;;;;;6.90;6.18;;;19.20;99.90;;;;;;4180083;28;20044;-67
2023/05/22 02:29:55;;;;;;;8.45;6.90;;;19.20;99.90;;;;;;4178210;28;20033;-63
2023/05/22 02:31:56;;;;;;;10.40;7.10;;;19.20;99.90;;;;;;4178738;28;20048;-62
2023/05/22 02:33:56;;;;;;;7.40;6.18;;;19.20;99.90;;;;;;4179236;28;20123;-62
2023/05/22 02:35:57;;;;;;;10.07;7.32;;;19.20;99.90;;;;;;4178674;28;20074;-62
2023/05/22 02:37:57;;;;;;;9.32;6.95;;;19.10;99.90;;;;;;4178967;28;20033;-62
2023/05/22 02:39:58;;;;;;;7.88;6.80;;;19.10;99.90;;;;;;4179686;28;20025;-61
2023/05/22 02:41:59;;;;;;;7.78;6.32;;;19.20;99.90;;;;;;4177427;28;20048;-62
2023/05/22 02:44:00;;;;;;;9.38;7.50;;;19.10;99.90;;;;;;4179269;28;20024;-62
2023/05/22 02:46:00;;;;;;;10.95;8.15;;;19.10;99.90;;;;;;4177176;28;20033;-61
2023/05/22 02:48:02;;;;;;;8.85;7.55;;;19.10;99.90;;;;;;4176877;28;20053;-62
2023/05/22 02:50:03;;;;;;;10.13;8.23;;;19.10;99.90;;;;;;4177390;28;20072;-62
2023/05/22 02:52:03;;;;;;;10.13;8.20;;;19.10;99.90;;;;;;4177422;28;20033;-62
2023/05/22 02:54:04;;;;;;;8.70;7.63;;;19.00;99.90;;;;;;4179197;28;20025;-62
2023/05/22 02:56:12;;;;;;;10.93;8.50;;;19.00;99.90;;;;;;4179353;28;20029;-62
2023/05/22 02:58:13;;;;;;;12.85;9.30;;;19.00;99.90;;;;;;4179429;28;20591;-62
2023/05/22 03:00:14;;;;;;;11.23;9.05;;;18.90;99.90;;;;;;4178494;28;20036;-62
2023/05/22 03:02:15;;;;;;;11.32;9.00;;;18.90;99.90;;;;;;4179899;28;20025;-62
2023/05/22 03:04:15;;;;;;;11.88;9.85;;;18.80;99.90;;;;;;4178380;28;20060;-62
2023/05/22 03:06:17;;;;;;;10.75;8.77;;;18.70;99.90;;;;;;4179688;28;20029;-61
2023/05/22 03:08:17;;;;;;;11.20;8.65;;;18.70;99.90;;;;;;4178587;28;20035;-62
2023/05/22 03:10:18;;;;;;;11.60;9.77;;;18.70;99.90;;;;;;4177803;28;20079;-62
2023/05/22 03:12:18;;;;;;;11.77;8.65;;;18.60;99.90;;;;;;4180024;28;20029;-62
2023/05/22 03:14:19;;;;;;;12.02;9.32;;;18.60;99.90;;;;;;4179941;28;20120;-62
2023/05/22 03:16:19;;;;;;;10.27;8.55;;;18.60;99.90;;;;;;4176730;28;20028;-62
2023/05/22 03:18:20;;;;;;;10.25;8.30;;;18.60;99.90;;;;;;4176068;28;20037;-62
2023/05/22 03:20:21;;;;;;;11.45;8.93;;;18.60;99.90;;;;;;4175960;28;20036;-62
2023/05/22 03:22:22;;;;;;;10.52;8.25;;;18.70;99.90;;;;;;4176043;28;20053;-62
2023/05/22 03:24:22;;;;;;;10.95;8.50;;;18.70;99.90;;;;;;4176817;28;20033;-62
2023/05/22 03:26:23;;;;;;;9.60;8.10;;;18.70;99.90;;;;;;4175885;28;20037;-62
2023/05/22 03:28:23;;;;;;;11.32;8.80;;;18.70;99.90;;;;;;4173956;28;20476;-62
2023/05/22 03:30:24;;;;;;;11.63;8.48;;;18.70;99.90;;;;;;4175738;28;20393;-62
2023/05/22 03:32:24;;;;;;;11.80;8.63;;;18.70;99.90;;;;;;4176535;28;20041;-62
2023/05/22 03:34:26;;;;;;;9.63;8.00;;;18.70;99.90;;;;;;4175546;28;20041;-61
2023/05/22 03:36:26;;;;;;;10.02;8.27;;;18.60;99.90;;;;;;4176394;28;20496;-62
2023/05/22 03:38:27;;;;;;;10.70;8.45;;;18.70;99.90;;;;;;4175937;28;20044;-62
2023/05/22 03:40:27;;;;;;;9.40;8.00;;;18.70;99.90;;;;;;4176176;28;20090;-62
2023/05/22 03:42:28;;;;;;;9.23;7.90;;;18.60;99.90;;;;;;4176139;28;20041;-62
2023/05/22 03:44:28;;;;;;;8.40;6.95;;;18.70;99.90;;;;;;4176933;28;20037;-62
2023/05/22 03:46:29;;;;;;;9.20;7.60;;;18.70;99.90;;;;;;4175276;28;20083;-62
2023/05/22 03:48:32;;;;;;;9.70;8.30;;;18.70;99.90;;;;;;4175339;28;20033;-62
2023/05/22 03:50:33;;;;;;;9.48;8.50;;;18.70;99.90;;;;;;4175865;28;20477;-61
2023/05/22 03:52:33;;;;;;;9.55;8.13;;;18.70;99.90;;;;;;4176152;28;20037;-64
2023/05/22 03:54:34;;;;;;;10.15;7.97;;;18.70;99.90;;;;;;4176281;28;20099;-62
2023/05/22 03:56:36;;;;;;;8.60;7.30;;;18.60;99.90;;;;;;4175746;28;20026;-62
2023/05/22 03:58:37;;;;;;;9.30;8.30;;;18.60;99.90;;;;;;4175292;28;20072;-62
2023/05/22 04:00:37;;;;;;;10.45;8.25;;;18.50;99.90;;;;;;4173422;28;20033;-62
2023/05/22 04:02:38;;;;;;;10.57;8.20;;;18.60;99.90;;;;;;4173889;28;20083;-62
2023/05/22 04:04:39;;;;;;;10.85;8.55;;;18.60;99.90;;;;;;4176012;28;20029;-62
2023/05/22 04:06:41;;;;;;;10.00;8.30;;;18.60;99.90;;;;;;4175565;28;20555;-62
2023/05/22 04:08:42;;;;;;;10.32;8.55;;;18.60;99.90;;;;;;4174586;28;20039;-61
2023/05/22 04:10:45;;;;;;;11.07;8.98;;;18.60;99.90;;;;;;4175612;28;20059;-62
2023/05/22 04:12:45;;;;;;;12.02;9.32;;;18.60;99.90;;;;;;4176115;28;20060;-62
2023/05/22 04:14:46;;;;;;;11.85;8.88;;;18.60;99.90;;;;;;4175361;28;20037;-62
2023/05/22 04:16:47;;;;;;;13.23;10.75;;;18.60;99.90;;;;;;4172322;28;20061;-62
2023/05/22 04:18:47;;;;;;;12.50;9.35;;;18.60;99.90;;;;;;4172701;28;20045;-63
2023/05/22 04:20:50;;;;;;;15.13;11.82;;;18.60;99.90;;;;;;4175927;28;20033;-63
2023/05/22 04:22:53;;;;;;;14.93;11.70;;;18.60;99.90;;;;;;4175873;28;20029;-63
2023/05/22 04:24:53;;;;;;;15.68;12.23;;;18.60;99.90;;;;;;4174810;28;21349;-63
2023/05/22 04:26:54;;;;;;;16.52;12.88;;;18.60;99.90;;;;;;4174521;28;20049;-63
2023/05/22 04:28:55;;;;;;;16.63;12.25;;;18.60;99.90;;;;;;4174295;28;20576;-63
2023/05/22 04:30:56;;;;;;;15.32;12.60;;;18.60;99.90;;;;;;4172961;28;20045;-63
2023/05/22 04:32:57;;;;;;;16.40;13.15;;;18.60;99.90;;;;;;4174420;28;20032;-65
2023/05/22 04:34:59;;;;;;;20.65;14.98;;;18.60;99.90;;;;;;4174940;28;20033;-64
2023/05/22 04:36:59;;;;;;;18.20;14.32;;;18.60;99.90;;;;;;4173025;28;20402;-63
2023/05/22 04:39:01;;;;;;;20.23;14.75;;;18.50;99.90;;;;;;4176571;28;20067;-63
2023/05/22 04:41:07;;;;;;;17.88;13.63;;;18.50;99.90;;;;;;4175845;28;20037;-63
2023/05/22 04:43:08;;;;;;;17.73;13.15;;;18.50;99.90;;;;;;4176154;28;20472;-63
2023/05/22 04:45:09;;;;;;;19.67;14.90;;;18.50;99.90;;;;;;4174735;28;20116;-64
2023/05/22 04:47:10;;;;;;;19.08;15.15;;;18.50;99.90;;;;;;4176951;28;20508;-63
2023/05/22 04:49:11;;;;;;;18.35;14.05;;;18.50;99.90;;;;;;4175285;28;20049;-63
2023/05/22 04:51:13;;;;;;;16.88;12.85;;;18.50;99.90;;;;;;4174755;28;20032;-62
2023/05/22 04:53:13;;;;;;;17.60;13.07;;;18.50;99.90;;;;;;4175602;28;20116;-63
2023/05/22 04:55:14;;;;;;;18.65;12.85;;;18.60;99.90;;;;;;4174298;28;20412;-62
2023/05/22 04:57:16;;;;;;;19.17;13.23;;;18.60;99.90;;;;;;4174570;28;20124;-62
2023/05/22 04:59:18;;;;;;;15.93;12.75;;;18.60;99.90;;;;;;4174781;28;20497;-63
2023/05/22 05:01:18;;;;;;;18.85;13.90;;;18.60;99.90;;;;;;4174594;28;20122;-63
2023/05/22 05:03:19;;;;;;;18.50;13.43;;;18.70;99.90;;;;;;4173756;28;20496;-63
2023/05/22 05:05:20;;;;;;;16.63;13.73;;;18.70;99.90;;;;;;4173481;28;20522;-63
2023/05/22 05:07:22;;;;;;;20.08;15.85;;;18.70;99.90;;;;;;4174662;28;20033;-63
2023/05/22 05:09:26;;;;;;;20.50;14.50;;;18.70;99.90;;;;;;4175366;28;20462;-63
2023/05/22 05:11:26;;;;;;;17.75;14.00;;;18.80;99.90;;;;;;4174636;28;20495;-63
2023/05/22 05:13:27;;;;;;;17.55;13.75;;;18.80;99.90;;;;;;4174266;28;20036;-63
2023/05/22 05:15:28;;;;;;;17.85;13.73;;;18.80;99.90;;;;;;4173711;28;20037;-64
2023/05/22 05:17:28;;;;;;;22.27;15.57;;;18.80;99.90;;;;;;4171603;28;20388;-63
2023/05/22 05:19:29;;;;;;;19.48;15.57;;;18.90;99.90;;;;;;4171168;28;20053;-63
2023/05/22 05:21:30;;;;;;;19.00;14.80;;;18.90;99.90;;;;;;4170445;28;20021;-63
2023/05/22 05:23:30;;;;;;;18.20;14.02;;;18.90;99.90;;;;;;4169546;28;20071;-62
2023/05/22 05:25:31;;;;;;;17.15;14.23;;;18.90;99.90;;;;;;4175030;28;20083;-63
2023/05/22 05:27:32;;;;;;;19.55;14.77;;;19.00;99.90;;;;;;4172416;28;20025;-62
2023/05/22 05:29:32;;;;;;;20.42;15.73;;;19.00;99.90;;;;;;4172617;28;20061;-63
2023/05/22 05:31:33;;;;;;;23.75;18.17;;;19.00;99.90;;;;;;4166788;28;20080;-62
2023/05/22 05:33:33;;;;;;;18.77;14.70;;;19.10;99.90;;;;;;4175754;28;20109;-62
2023/05/22 05:35:34;;;;;;;19.35;14.95;;;19.10;99.90;;;;;;4172478;28;20476;-62
2023/05/22 05:37:35;;;;;;;19.27;15.52;;;19.10;99.90;;;;;;4173086;28;20557;-62
2023/05/22 05:39:36;;;;;;;21.88;15.77;;;19.20;99.90;;;;;;4165163;28;20126;-63
2023/05/22 05:41:36;;;;;;;22.60;16.02;;;19.10;99.90;;;;;;4167167;28;20037;-63
2023/05/22 05:43:38;;;;;;;21.67;16.52;;;19.20;99.90;;;;;;4173650;28;20044;-63
2023/05/22 05:45:39;;;;;;;25.45;19.58;;;19.30;99.90;;;;;;4173488;28;20098;-63
2023/05/22 05:47:40;;;;;;;21.45;16.90;;;19.30;99.90;;;;;;4174303;28;20041;-63
2023/05/22 05:49:40;;;;;;;20.08;16.02;;;19.20;99.90;;;;;;4173673;28;20064;-63
2023/05/22 05:51:41;;;;;;;18.52;14.82;;;19.30;99.90;;;;;;4171054;28;20395;-63
2023/05/22 05:53:41;;;;;;;22.83;16.63;;;19.30;99.90;;;;;;4174157;28;20383;-63
2023/05/22 05:55:42;;;;;;;24.17;18.88;;;19.40;99.90;;;;;;4172664;28;20450;-63
2023/05/22 05:57:43;;;;;;;28.60;19.52;;;19.40;99.90;;;;;;4174401;28;20035;-63
2023/05/22 05:59:43;;;;;;;25.02;19.13;;;19.40;99.90;;;;;;4173893;28;20094;-63
2023/05/22 06:01:45;;;;;;;29.40;20.90;;;19.50;99.90;;;;;;4173175;28;20029;-63
2023/05/22 06:03:46;;;;;;;28.13;20.80;;;19.50;99.90;;;;;;4175322;28;20033;-63
2023/05/22 06:05:47;;;;;;;29.30;21.92;;;19.50;99.90;;;;;;4171750;28;20380;-62
2023/05/22 06:07:48;;;;;;;24.20;18.40;;;19.60;99.90;;;;;;4174224;28;20039;-63
2023/05/22 06:09:49;;;;;;;32.45;21.52;;;19.70;99.90;;;;;;4173974;28;20044;-63
2023/05/22 06:11:49;;;;;;;33.83;19.98;;;19.70;99.90;;;;;;4174064;28;20029;-63
2023/05/22 06:13:50;;;;;;;25.25;18.77;;;19.80;99.90;;;;;;4175160;28;20025;-63
2023/05/22 06:15:51;;;;;;;25.40;18.80;;;19.90;99.90;;;;;;4171771;28;20033;-63
2023/05/22 06:17:51;;;;;;;24.23;19.63;;;20.10;99.90;;;;;;4174903;28;20039;-63
2023/05/22 06:19:52;;;;;;;28.95;19.17;;;20.20;99.90;;;;;;4173127;28;20040;-63
2023/05/22 06:21:52;;;;;;;27.80;20.35;;;20.20;99.90;;;;;;4173524;28;20029;-63
2023/05/22 06:23:53;;;;;;;25.73;19.75;;;20.30;99.90;;;;;;4167163;28;20083;-63
2023/05/22 06:25:54;;;;;;;27.15;20.95;;;20.40;99.90;;;;;;4158218;28;20052;-63
2023/05/22 06:27:55;;;;;;;23.60;18.52;;;20.50;99.90;;;;;;4163994;28;20037;-63
2023/05/22 06:29:55;;;;;;;22.70;18.73;;;20.60;99.90;;;;;;4169758;28;20045;-63
2023/05/22 06:31:56;;;;;;;24.40;19.38;;;20.70;99.90;;;;;;4165468;28;20179;-62
2023/05/22 06:33:57;;;;;;;22.42;17.77;;;20.90;99.90;;;;;;4163343;28;20484;-63
2023/05/22 06:35:57;;;;;;;26.15;19.45;;;20.90;99.90;;;;;;4167460;28;20037;-63
2023/05/22 06:37:58;;;;;;;32.42;24.10;;;20.90;99.90;;;;;;4170113;28;20048;-64
2023/05/22 06:39:58;;;;;;;29.23;21.08;;;20.80;99.90;;;;;;4167592;28;20037;-64
2023/05/22 06:41:59;;;;;;;29.95;22.38;;;20.70;99.90;;;;;;4165727;28;20622;-66
2023/05/22 06:44:01;;;;;;;27.38;20.70;;;20.60;99.90;;;;;;4165992;28;20029;-65
2023/05/22 06:46:01;;;;;;;24.08;19.17;;;20.50;99.90;;;;;;4138739;28;20144;-65
2023/05/22 06:48:02;;;;;;;27.65;19.45;;;20.40;99.90;;;;;;4144540;28;20615;-65
2023/05/22 06:50:03;;;;;;;29.42;21.55;;;20.40;99.90;;;;;;4135170;28;20047;-65
2023/05/22 06:52:04;;;;;;;32.67;22.83;;;20.40;99.90;;;;;;4143640;28;20725;-65
2023/05/22 06:54:06;;;;;;;27.88;19.55;;;20.30;99.90;;;;;;4163848;28;20045;-65
2023/05/22 06:56:07;;;;;;;31.08;22.55;;;20.20;99.90;;;;;;4169061;28;20087;-65
2023/05/22 06:58:07;;;;;;;30.48;21.33;;;20.10;99.90;;;;;;4172563;28;20037;-64
2023/05/22 07:00:11;;;;;;;29.17;20.88;;;20.10;99.90;;;;;;4168545;28;20047;-65
2023/05/22 07:02:11;;;;;;;29.40;21.55;;;20.00;99.90;;;;;;4170992;28;20369;-64
2023/05/22 07:04:12;;;;;;;25.48;19.05;;;19.90;99.90;;;;;;4169593;28;20036;-64
2023/05/22 07:06:12;;;;;;;26.30;19.75;;;19.90;99.90;;;;;;4168615;28;20045;-64
2023/05/22 07:08:13;;;;;;;28.17;21.05;;;19.80;99.90;;;;;;4172096;28;20155;-65
2023/05/22 07:10:14;;;;;;;27.13;18.52;;;19.80;99.90;;;;;;4170449;28;20045;-64
2023/05/22 07:12:15;;;;;;;32.45;20.42;;;19.70;99.90;;;;;;4171458;28;20029;-64
2023/05/22 07:14:16;;;;;;;28.30;20.45;;;19.70;99.90;;;;;;4168878;28;20041;-64
2023/05/22 07:16:17;;;;;;;34.15;25.13;;;19.60;99.90;;;;;;4170061;28;20176;-64
2023/05/22 07:18:17;;;;;;;34.00;23.92;;;19.60;99.90;;;;;;4170987;28;20239;-64
2023/05/22 07:20:18;;;;;;;31.45;22.45;;;19.50;99.90;;;;;;4166217;28;20427;-64
2023/05/22 07:22:19;;;;;;;37.05;27.02;;;19.50;99.90;;;;;;4170117;28;20041;-64
2023/05/22 07:24:19;;;;;;;37.63;26.33;;;19.40;99.90;;;;;;4167202;28;20038;-64
2023/05/22 07:26:21;;;;;;;30.98;22.60;;;19.30;99.90;;;;;;4168498;28;20033;-64
2023/05/22 07:28:21;;;;;;;42.47;28.50;;;19.20;99.90;;;;;;4170102;28;20074;-64
2023/05/22 07:30:22;;;;;;;36.55;26.42;;;19.20;99.90;;;;;;4167795;28;21439;-64
2023/05/22 07:32:23;;;;;;;40.00;25.02;;;19.10;99.90;;;;;;4167174;28;20086;-64
2023/05/22 07:34:30;;;;;;;34.97;24.75;;;19.00;99.90;;;;;;4167123;28;20048;-64
2023/05/22 07:36:31;;;;;;;38.63;25.77;;;19.00;99.90;;;;;;4167693;28;20033;-65
2023/05/22 07:38:31;;;;;;;38.08;25.63;;;18.90;99.90;;;;;;4170191;28;20041;-65
2023/05/22 07:40:32;;;;;;;32.55;22.80;;;18.90;99.90;;;;;;4171219;28;20515;-64
2023/05/22 07:42:33;;;;;;;33.20;24.10;;;18.90;99.90;;;;;;4169828;28;20036;-63
2023/05/22 07:44:33;;;;;;;37.80;27.00;;;18.90;99.90;;;;;;4165988;28;20041;-64
2023/05/22 07:46:36;;;;;;;37.22;25.25;;;18.90;99.90;;;;;;4165296;28;20067;-64
2023/05/22 07:48:36;;;;;;;40.38;27.70;;;18.90;99.90;;;;;;4167422;28;20037;-64
2023/05/22 07:50:37;;;;;;;37.65;26.02;;;18.80;99.90;;;;;;4165590;28;20339;-64
2023/05/22 07:52:38;;;;;;;42.20;29.30;;;18.80;99.90;;;;;;4167156;28;20086;-64
2023/05/22 07:54:38;;;;;;;40.17;27.50;;;18.80;99.90;;;;;;4168280;28;20099;-63
2023/05/22 07:56:42;;;;;;;32.63;23.77;;;18.70;99.90;;;;;;4166710;28;20387;-64
2023/05/22 07:58:42;;;;;;;36.17;27.55;;;18.70;99.90;;;;;;4165342;28;20033;-65
2023/05/22 08:00:43;;;;;;;39.40;25.52;;;18.60;99.90;;;;;;4168471;28;20486;-65
2023/05/22 08:02:43;;;;;;;37.78;26.17;;;18.60;99.90;;;;;;4168650;28;20040;-65
2023/05/22 08:04:44;;;;;;;29.58;21.23;;;18.60;99.90;;;;;;4166754;28;20033;-65
2023/05/22 08:06:45;;;;;;;33.05;24.23;;;18.60;99.90;;;;;;4165853;28;20101;-64
2023/05/22 08:08:45;;;;;;;34.67;24.52;;;18.60;99.90;;;;;;4168602;28;20116;-64
2023/05/22 08:10:47;;;;;;;36.53;23.48;;;18.60;99.90;;;;;;4167736;28;20484;-64
2023/05/22 08:12:48;;;;;;;31.90;23.48;;;18.60;99.90;;;;;;4169993;28;20441;-63
2023/05/22 08:14:49;;;;;;;36.33;24.80;;;18.60;99.90;;;;;;4170369;28;20057;-64
2023/05/22 08:16:49;;;;;;;34.95;23.38;;;18.60;99.90;;;;;;4168624;28;20033;-64
2023/05/22 08:18:50;;;;;;;30.55;20.98;;;18.60;99.90;;;;;;4165549;28;20055;-64
2023/05/22 08:20:52;;;;;;;31.40;22.65;;;18.60;99.90;;;;;;4167696;28;20041;-64
2023/05/22 08:22:53;;;;;;;37.08;23.67;;;18.50;99.90;;;;;;4167204;28;20079;-64
2023/05/22 08:24:53;;;;;;;37.75;26.50;;;18.50;99.90;;;;;;4168483;28;20025;-64
2023/05/22 08:26:57;;;;;;;36.78;25.33;;;18.50;99.90;;;;;;4166473;28;20536;-64
2023/05/22 08:28:57;;;;;;;31.52;21.90;;;18.40;99.90;;;;;;4169893;28;20036;-64
2023/05/22 08:30:58;;;;;;;48.28;29.98;;;18.40;99.90;;;;;;4169688;28;20036;-64
2023/05/22 08:32:58;;;;;;;39.75;28.02;;;18.30;99.90;;;;;;4168516;28;20036;-64
2023/05/22 08:34:59;;;;;;;38.90;25.55;;;18.20;99.90;;;;;;4172277;28;20063;-64
2023/05/22 08:37:00;;;;;;;33.95;23.48;;;18.20;99.90;;;;;;4171646;28;20045;-64
2023/05/22 08:39:01;;;;;;;40.58;27.77;;;18.20;99.90;;;;;;4170297;28;20108;-65
2023/05/22 08:41:01;;;;;;;32.97;22.83;;;18.20;99.90;;;;;;4167311;28;20029;-65
2023/05/22 08:43:03;;;;;;;32.78;22.55;;;18.10;99.90;;;;;;4169446;28;20039;-64
2023/05/22 08:45:05;;;;;;;34.20;23.73;;;18.10;99.90;;;;;;4170793;28;20480;-67
2023/05/22 08:47:10;;;;;;;41.83;27.60;;;18.10;99.90;;;;;;4165167;28;20056;-64
2023/05/22 08:49:12;;;;;;;37.72;25.85;;;18.10;99.90;;;;;;4170626;28;20053;-64
2023/05/22 08:51:17;;;;;;;36.53;24.83;;;18.10;99.90;;;;;;4169760;28;20124;-63
2023/05/22 08:53:22;;;;;;;33.90;22.77;;;18.20;99.90;;;;;;4171366;28;20852;-64
2023/05/22 08:55:23;;;;;;;38.75;25.17;;;18.20;99.90;;;;;;4168970;28;20375;-64
2023/05/22 08:57:25;;;;;;;43.50;29.85;;;18.20;99.90;;;;;;4160436;28;20341;-63
2023/05/22 09:00:16;;;;;;;42.50;29.07;;;18.10;99.90;;;;;;4150680;28;20086;-64
2023/05/22 09:02:18;;;;;;;40.95;27.65;;;18.10;99.90;;;;;;4168630;28;20371;-64
2023/05/22 09:04:22;;;;;;;47.25;29.67;;;18.10;99.90;;;;;;4167989;28;20583;-64
2023/05/22 09:06:23;;;;;;;41.83;27.35;;;18.10;99.90;;;;;;4169694;28;20051;-64
2023/05/22 09:08:23;;;;;;;43.15;28.85;;;18.20;99.90;;;;;;4170967;28;20500;-64
2023/05/22 09:10:24;;;;;;;46.40;31.02;;;18.20;99.90;;;;;;4172530;28;20048;-64
2023/05/22 09:12:28;;;;;;;46.72;29.27;;;18.20;99.90;;;;;;4174302;28;20041;-64
2023/05/22 09:14:43;;;;;;;39.60;27.13;;;18.20;99.90;;;;;;4172343;28;20443;-63
2023/05/22 09:16:50;;;;;;;39.03;28.48;;;18.20;99.90;;;;;;4168667;28;20072;-64
2023/05/22 09:18:50;;;;;;;41.78;28.58;;;18.20;99.90;;;;;;4172298;28;20095;-64
2023/05/22 09:20:51;;;;;;;44.60;29.67;;;18.20;99.90;;;;;;4172569;28;20533;-64
2023/05/22 09:22:52;;;;;;;40.90;28.70;;;18.20;99.90;;;;;;4170042;28;20083;-64
2023/05/22 09:24:53;;;;;;;45.97;29.83;;;18.20;99.90;;;;;;4166245;28;20094;-64
2023/05/22 09:26:53;;;;;;;45.45;31.42;;;18.20;99.90;;;;;;4165874;28;20029;-64
2023/05/22 09:28:55;;;;;;;41.20;26.48;;;18.30;99.90;;;;;;4168800;28;20531;-64
2023/05/22 09:30:57;;;;;;;40.05;24.17;;;18.30;99.90;;;;;;4168432;28;20029;-64
2023/05/22 09:32:57;;;;;;;40.13;26.52;;;18.40;99.90;;;;;;4170773;28;20111;-64
2023/05/22 09:35:05;;;;;;;33.88;23.58;;;18.40;99.90;;;;;;4168679;28;20029;-64
2023/05/22 09:37:06;;;;;;;40.30;28.08;;;18.50;99.90;;;;;;4169033;28;20070;-64
2023/05/22 09:39:06;;;;;;;44.65;31.30;;;18.60;99.90;;;;;;4171859;28;20041;-64
2023/05/22 09:41:07;;;;;;;34.00;26.05;;;18.70;99.90;;;;;;4171032;28;20041;-64
2023/05/22 09:43:11;;;;;;;36.70;26.45;;;18.70;99.90;;;;;;4171417;28;20037;-64
2023/05/22 09:45:12;;;;;;;36.97;26.38;;;18.80;99.90;;;;;;4165363;28;20501;-64
2023/05/22 09:47:12;;;;;;;38.17;27.58;;;18.80;99.90;;;;;;4169764;28;20040;-67
2023/05/22 09:49:13;;;;;;;38.95;25.95;;;18.90;99.90;;;;;;4164453;28;20462;-65
2023/05/22 09:51:15;;;;;;;42.83;25.70;;;18.90;99.90;;;;;;4169842;28;20087;-64
2023/05/22 09:53:18;;;;;;;34.72;25.27;;;19.10;99.90;;;;;;4171564;28;20127;-64
2023/05/22 09:55:22;;;;;;;44.15;30.30;;;19.10;99.90;;;;;;4171827;28;20068;-64
2023/05/22 09:57:25;;;;;;;31.73;22.92;;;19.20;99.90;;;;;;4171536;28;20060;-63
2023/05/22 09:59:30;;;;;;;;;;;19.40;99.90;;;;;;4169605;28;20416;-63
2023/05/22 10:01:32;;;;;;;43.05;27.77;;;19.40;99.90;;;;;;4168787;28;19971;-64
2023/05/22 10:03:33;;;;;;;;;;;19.50;99.90;;;;;;4171735;28;20045;-64
2023/05/22 10:05:36;;;;;;;37.50;25.13;;;19.60;99.90;;;;;;4166897;28;19909;-64
2023/05/22 10:07:49;;;;;;;36.60;24.95;;;19.70;99.90;;;;;;4171873;28;20048;-64
2023/05/22 10:10:01;;;;;;;36.28;25.50;;;19.80;99.90;;;;;;4171411;28;20120;-64
2023/05/22 10:12:06;;;;;;;40.85;28.75;;;19.90;99.90;;;;;;4171678;28;20133;-64
2023/05/22 10:14:07;;;;;;;39.80;26.55;;;20.00;99.90;;;;;;4170090;28;20029;-64
2023/05/22 10:16:10;;;;;;;33.40;24.23;;;20.10;99.90;;;;;;4168345;28;20480;-64
2023/05/22 10:18:12;;;;;;;27.63;20.55;;;20.20;99.90;;;;;;4171583;28;20292;-64
2023/05/22 10:20:15;;;;;;;31.08;21.50;;;20.30;99.90;;;;;;4169052;28;20041;-65
2023/05/22 10:22:19;;;;;;;28.33;20.13;;;20.40;99.90;;;;;;4170501;28;20511;-64
2023/05/22 10:24:20;;;;;;;29.65;22.27;;;20.50;99.90;;;;;;4171924;28;20078;-64
2023/05/22 10:26:21;;;;;;;28.42;20.67;;;20.60;99.90;;;;;;4171158;28;20041;-64